createdAt,value
2024-02-02T00:00:37.382Z,0.00
2024-02-02T00:01:37.485Z,0.00
2024-02-02T00:02:36.324Z,0.00
2024-02-02T00:03:37.032Z,0.00
2024-02-02T00:04:37.116Z,0.00
2024-02-02T00:05:34.686Z,0.00
2024-02-02T00:06:34.780Z,0.00
2024-02-02T00:07:34.753Z,0.00
2024-02-02T00:08:37.030Z,0.00
2024-02-02T00:09:35.396Z,0.00
2024-02-02T00:10:36.084Z,0.00
2024-02-02T00:11:35.333Z,0.00
2024-02-02T00:12:35.340Z,0.00
2024-02-02T00:13:34.579Z,0.00
2024-02-02T00:14:36.296Z,0.00
2024-02-02T00:15:37.017Z,0.00
2024-02-02T00:16:35.240Z,0.00
2024-02-02T00:17:37.340Z,0.00
2024-02-02T00:18:35.501Z,0.00
2024-02-02T00:19:35.333Z,0.00
2024-02-02T00:20:35.194Z,0.00
2024-02-02T00:21:34.500Z,0.00
2024-02-02T00:22:34.848Z,0.00
2024-02-02T00:23:35.165Z,0.00
2024-02-02T00:24:36.299Z,0.00
2024-02-02T00:25:35.125Z,0.00
2024-02-02T00:26:35.148Z,0.00
2024-02-02T00:27:35.195Z,0.00
2024-02-02T00:28:35.121Z,0.00
2024-02-02T00:29:34.370Z,0.00
2024-02-02T00:30:36.591Z,0.00
2024-02-02T00:31:36.465Z,0.00
2024-02-02T00:32:35.103Z,0.00
2024-02-02T00:33:34.722Z,0.00
2024-02-02T00:34:34.598Z,0.00
2024-02-02T00:35:35.005Z,0.00
2024-02-02T00:36:34.504Z,0.00
2024-02-02T00:37:34.565Z,0.00
2024-02-02T00:38:35.024Z,0.00
2024-02-02T00:39:35.034Z,0.00
2024-02-02T00:40:34.943Z,0.00
2024-02-02T00:41:35.004Z,0.00
2024-02-02T00:42:34.267Z,0.00
2024-02-02T00:43:34.930Z,0.00
2024-02-02T00:44:35.035Z,0.00
2024-02-02T00:45:34.239Z,0.00
2024-02-02T00:46:35.543Z,0.00
2024-02-02T00:47:34.932Z,0.00
2024-02-02T00:48:35.175Z,0.00
2024-02-02T00:49:38.374Z,0.00
2024-02-02T00:50:35.497Z,0.00
2024-02-02T00:51:37.151Z,0.00
2024-02-02T00:52:35.101Z,0.00
2024-02-02T00:53:37.885Z,0.00
2024-02-02T00:54:37.726Z,0.00
2024-02-02T00:55:35.547Z,0.00
2024-02-02T00:56:37.613Z,0.00
2024-02-02T00:57:38.007Z,0.00
2024-02-02T00:58:36.655Z,0.00
2024-02-02T00:59:37.660Z,0.00
2024-02-02T01:00:38.664Z,0.00
2024-02-02T01:01:34.541Z,0.00
2024-02-02T01:02:37.102Z,0.00
2024-02-02T01:03:34.936Z,0.00
2024-02-02T01:04:36.182Z,0.00
2024-02-02T01:05:37.140Z,0.00
2024-02-02T01:06:35.832Z,0.00
2024-02-02T01:07:34.721Z,0.00
2024-02-02T01:08:41.786Z,0.00
2024-02-02T01:09:34.351Z,0.00
2024-02-02T01:10:34.432Z,0.00
2024-02-02T01:11:34.968Z,0.00
2024-02-02T01:12:37.662Z,0.00
2024-02-02T01:13:38.160Z,0.00
2024-02-02T01:14:36.556Z,0.00
2024-02-02T01:15:36.872Z,0.00
2024-02-02T01:16:34.505Z,0.00
2024-02-02T01:17:33.874Z,0.00
2024-02-02T01:18:35.344Z,0.00
2024-02-02T01:19:34.143Z,0.00
2024-02-02T01:20:34.203Z,0.00
2024-02-02T01:21:34.879Z,0.00
2024-02-02T01:22:34.351Z,0.00
2024-02-02T01:23:34.367Z,0.00
2024-02-02T01:24:34.401Z,0.00
2024-02-02T01:25:33.593Z,0.00
2024-02-02T01:26:33.602Z,0.00
2024-02-02T01:27:34.355Z,0.00
2024-02-02T01:28:34.292Z,0.00
2024-02-02T01:29:34.284Z,0.00
2024-02-02T01:30:34.067Z,0.00
2024-02-02T01:31:34.959Z,0.00
2024-02-02T01:32:34.261Z,0.00
2024-02-02T01:33:33.657Z,0.00
2024-02-02T01:34:33.623Z,0.00
2024-02-02T01:35:34.244Z,0.00
2024-02-02T01:36:34.320Z,0.00
2024-02-02T01:37:34.230Z,0.00
2024-02-02T01:38:34.196Z,0.00
2024-02-02T01:39:34.174Z,0.00
2024-02-02T01:40:34.127Z,0.00
2024-02-02T01:41:33.414Z,0.00
2024-02-02T01:42:33.465Z,0.00
2024-02-02T01:43:35.472Z,0.00
2024-02-02T01:44:34.750Z,0.00
2024-02-02T01:45:34.812Z,0.00
2024-02-02T01:46:34.072Z,0.00
2024-02-02T01:47:34.855Z,0.00
2024-02-02T01:48:34.159Z,0.00
2024-02-02T01:49:33.496Z,0.00
2024-02-02T01:50:34.675Z,0.00
2024-02-02T01:51:35.709Z,0.00
2024-02-02T01:52:34.023Z,0.00
2024-02-02T01:53:34.700Z,0.00
2024-02-02T01:54:34.666Z,0.00
2024-02-02T01:55:37.494Z,0.00
2024-02-02T01:56:37.493Z,0.00
2024-02-02T01:57:33.393Z,0.00
2024-02-02T01:58:33.159Z,0.00
2024-02-02T01:59:35.098Z,0.00
2024-02-02T02:00:33.927Z,0.00
2024-02-02T02:01:33.905Z,0.00
2024-02-02T02:02:33.162Z,0.00
2024-02-02T02:03:34.031Z,0.00
2024-02-02T02:04:33.873Z,0.00
2024-02-02T02:05:33.111Z,0.00
2024-02-02T02:06:33.809Z,0.00
2024-02-02T02:07:33.774Z,0.00
2024-02-02T02:08:33.759Z,0.00
2024-02-02T02:09:33.736Z,0.00
2024-02-02T02:10:33.788Z,0.00
2024-02-02T02:11:34.406Z,0.00
2024-02-02T02:12:33.782Z,0.00
2024-02-02T02:13:32.963Z,0.00
2024-02-02T02:14:32.969Z,0.00
2024-02-02T02:15:33.768Z,0.00
2024-02-02T02:16:33.651Z,0.00
2024-02-02T02:17:34.346Z,0.00
2024-02-02T02:18:35.783Z,0.00
2024-02-02T02:19:34.687Z,0.00
2024-02-02T02:20:33.690Z,0.00
2024-02-02T02:21:32.908Z,0.00
2024-02-02T02:22:32.858Z,0.00
2024-02-02T02:23:33.566Z,0.00
2024-02-02T02:24:33.649Z,0.00
2024-02-02T02:25:34.211Z,0.00
2024-02-02T02:26:33.524Z,0.00
2024-02-02T02:27:33.567Z,0.00
2024-02-02T02:28:33.493Z,0.00
2024-02-02T02:29:32.763Z,0.00
2024-02-02T02:30:33.103Z,0.00
2024-02-02T02:31:33.495Z,0.00
2024-02-02T02:32:34.242Z,0.00
2024-02-02T02:33:33.629Z,0.00
2024-02-02T02:34:33.645Z,0.00
2024-02-02T02:35:33.464Z,0.00
2024-02-02T02:36:34.100Z,0.00
2024-02-02T02:37:32.923Z,0.00
2024-02-02T02:38:34.611Z,0.00
2024-02-02T02:39:34.172Z,0.00
2024-02-02T02:40:34.021Z,0.00
2024-02-02T02:41:33.332Z,0.00
2024-02-02T02:42:34.084Z,0.00
2024-02-02T02:43:33.973Z,0.00
2024-02-02T02:44:32.974Z,0.00
2024-02-02T02:45:32.644Z,0.00
2024-02-02T02:46:32.785Z,0.00
2024-02-02T02:47:33.425Z,0.00
2024-02-02T02:48:34.069Z,0.00
2024-02-02T02:49:34.120Z,0.00
2024-02-02T02:50:33.262Z,0.00
2024-02-02T02:51:33.292Z,0.00
2024-02-02T02:52:33.250Z,0.00
2024-02-02T02:53:32.450Z,0.00
2024-02-02T02:54:32.484Z,0.00
2024-02-02T02:55:33.182Z,0.00
2024-02-02T02:56:33.132Z,0.00
2024-02-02T02:57:33.173Z,0.00
2024-02-02T02:58:33.804Z,0.00
2024-02-02T02:59:33.099Z,0.00
2024-02-02T03:00:33.839Z,0.00
2024-02-02T03:01:33.066Z,0.00
2024-02-02T03:02:32.996Z,0.00
2024-02-02T03:03:33.094Z,0.00
2024-02-02T03:04:33.182Z,0.00
2024-02-02T03:05:33.030Z,0.00
2024-02-02T03:06:33.842Z,0.00
2024-02-02T03:07:34.238Z,0.00
2024-02-02T03:08:33.668Z,0.00
2024-02-02T03:09:32.266Z,0.00
2024-02-02T03:10:32.233Z,0.00
2024-02-02T03:11:33.667Z,0.00
2024-02-02T03:12:33.013Z,0.00
2024-02-02T03:13:32.956Z,0.00
2024-02-02T03:14:33.616Z,0.00
2024-02-02T03:15:33.707Z,0.00
2024-02-02T03:16:32.871Z,0.00
2024-02-02T03:17:32.261Z,0.00
2024-02-02T03:18:32.281Z,0.00
2024-02-02T03:19:32.969Z,0.00
2024-02-02T03:20:32.835Z,0.00
2024-02-02T03:21:33.520Z,0.00
2024-02-02T03:22:32.938Z,0.00
2024-02-02T03:23:32.795Z,0.00
2024-02-02T03:24:32.847Z,0.00
2024-02-02T03:25:32.068Z,0.00
2024-02-02T03:26:32.090Z,0.00
2024-02-02T03:27:32.769Z,0.00
2024-02-02T03:28:32.721Z,0.00
2024-02-02T03:29:32.714Z,0.00
2024-02-02T03:30:32.760Z,0.00
2024-02-02T03:31:32.741Z,0.00
2024-02-02T03:32:32.343Z,0.00
2024-02-02T03:33:32.033Z,0.00
2024-02-02T03:34:32.004Z,0.00
2024-02-02T03:35:32.607Z,0.00
2024-02-02T03:36:32.703Z,0.00
2024-02-02T03:37:33.276Z,0.00
2024-02-02T03:38:33.310Z,0.00
2024-02-02T03:39:32.614Z,0.00
2024-02-02T03:40:32.129Z,0.00
2024-02-02T03:41:31.807Z,0.00
2024-02-02T03:42:31.956Z,0.00
2024-02-02T03:43:33.779Z,0.00
2024-02-02T03:44:32.489Z,0.00
2024-02-02T03:45:33.830Z,0.00
2024-02-02T03:46:32.484Z,0.00
2024-02-02T03:47:33.739Z,0.00
2024-02-02T03:48:33.210Z,0.00
2024-02-02T03:49:31.755Z,0.00
2024-02-02T03:50:32.485Z,0.00
2024-02-02T03:51:33.141Z,0.00
2024-02-02T03:52:33.071Z,0.00
2024-02-02T03:53:31.736Z,0.00
2024-02-02T03:54:33.120Z,0.00
2024-02-02T03:55:33.088Z,0.00
2024-02-02T03:56:31.639Z,0.00
2024-02-02T03:57:31.793Z,0.00
2024-02-02T03:58:31.648Z,0.00
2024-02-02T03:59:33.001Z,0.00
2024-02-02T04:00:33.051Z,0.00
2024-02-02T04:01:31.562Z,0.00
2024-02-02T04:02:32.269Z,0.00
2024-02-02T04:03:32.294Z,0.00
2024-02-02T04:04:31.527Z,0.00
2024-02-02T04:05:31.544Z,0.00
2024-02-02T04:06:31.596Z,0.00
2024-02-02T04:07:32.882Z,0.00
2024-02-02T04:08:32.909Z,0.00
2024-02-02T04:09:32.931Z,0.00
2024-02-02T04:10:32.167Z,0.00
2024-02-02T04:11:32.156Z,0.00
2024-02-02T04:12:32.935Z,0.00
2024-02-02T04:13:31.388Z,0.00
2024-02-02T04:14:31.368Z,0.00
2024-02-02T04:15:33.602Z,0.00
2024-02-02T04:16:32.146Z,0.00
2024-02-02T04:17:31.715Z,0.00
2024-02-02T04:18:32.873Z,0.00
2024-02-02T04:19:31.780Z,0.00
2024-02-02T04:20:31.309Z,0.00
2024-02-02T04:21:31.425Z,0.00
2024-02-02T04:22:31.724Z,0.00
2024-02-02T04:23:32.680Z,0.00
2024-02-02T04:24:32.051Z,0.00
2024-02-02T04:25:31.239Z,0.00
2024-02-02T04:26:33.168Z,0.00
2024-02-02T04:27:32.193Z,0.00
2024-02-02T04:28:31.679Z,0.00
2024-02-02T04:29:31.788Z,0.00
2024-02-02T04:30:31.199Z,0.00
2024-02-02T04:31:31.487Z,0.00
2024-02-02T04:32:32.563Z,0.00
2024-02-02T04:33:31.934Z,0.00
2024-02-02T04:34:33.203Z,0.00
2024-02-02T04:35:31.830Z,0.00
2024-02-02T04:36:31.160Z,0.00
2024-02-02T04:37:31.144Z,0.00
2024-02-02T04:38:31.104Z,0.00
2024-02-02T04:39:32.535Z,0.00
2024-02-02T04:40:31.056Z,0.00
2024-02-02T04:41:31.080Z,0.00
2024-02-02T04:42:31.787Z,0.00
2024-02-02T04:43:32.517Z,0.00
2024-02-02T04:44:30.980Z,0.00
2024-02-02T04:45:31.008Z,0.00
2024-02-02T04:46:32.355Z,0.00
2024-02-02T04:47:31.119Z,0.00
2024-02-02T04:48:31.742Z,0.00
2024-02-02T04:49:31.006Z,0.00
2024-02-02T04:50:31.626Z,0.00
2024-02-02T04:51:31.716Z,0.00
2024-02-02T04:52:31.019Z,0.00
2024-02-02T04:53:30.867Z,0.00
2024-02-02T04:54:31.648Z,0.00
2024-02-02T04:55:31.573Z,0.00
2024-02-02T04:56:32.225Z,0.00
2024-02-02T04:57:31.576Z,0.00
2024-02-02T04:58:32.199Z,0.00
2024-02-02T04:59:32.184Z,0.00
2024-02-02T05:00:30.840Z,0.00
2024-02-02T05:01:31.485Z,0.00
2024-02-02T05:02:32.179Z,0.00
2024-02-02T05:03:32.337Z,0.00
2024-02-02T05:04:31.625Z,0.00
2024-02-02T05:05:30.694Z,0.00
2024-02-02T05:06:31.504Z,0.00
2024-02-02T05:07:31.401Z,0.00
2024-02-02T05:08:30.691Z,0.00
2024-02-02T05:09:30.700Z,0.00
2024-02-02T05:10:32.588Z,0.00
2024-02-02T05:11:31.363Z,0.00
2024-02-02T05:12:31.483Z,0.00
2024-02-02T05:13:30.825Z,0.00
2024-02-02T05:14:32.004Z,0.00
2024-02-02T05:15:32.193Z,0.00
2024-02-02T05:16:30.557Z,0.00
2024-02-02T05:17:30.669Z,0.00
2024-02-02T05:18:31.439Z,0.00
2024-02-02T05:19:31.278Z,0.00
2024-02-02T05:20:31.901Z,0.00
2024-02-02T05:21:31.261Z,0.00
2024-02-02T05:22:31.882Z,0.00
2024-02-02T05:23:31.201Z,0.00
2024-02-02T05:24:43.063Z,0.00
2024-02-02T05:25:31.441Z,0.00
2024-02-02T05:26:31.908Z,0.00
2024-02-02T05:27:31.156Z,0.00
2024-02-02T05:28:31.130Z,0.00
2024-02-02T05:29:30.750Z,0.00
2024-02-02T05:30:30.499Z,0.00
2024-02-02T05:31:31.785Z,0.00
2024-02-02T05:32:30.362Z,0.00
2024-02-02T05:33:30.411Z,0.00
2024-02-02T05:34:31.192Z,0.00
2024-02-02T05:35:31.083Z,0.00
2024-02-02T05:36:31.121Z,0.00
2024-02-02T05:37:30.290Z,0.00
2024-02-02T05:38:31.678Z,0.00
2024-02-02T05:39:31.069Z,0.00
2024-02-02T05:40:32.908Z,0.00
2024-02-02T05:41:30.232Z,0.00
2024-02-02T05:42:31.051Z,0.00
2024-02-02T05:43:31.662Z,0.00
2024-02-02T05:44:31.605Z,0.00
2024-02-02T05:45:32.204Z,0.00
2024-02-02T05:46:32.390Z,0.00
2024-02-02T05:47:30.905Z,0.00
2024-02-02T05:48:30.228Z,0.00
2024-02-02T05:49:30.271Z,0.00
2024-02-02T05:50:31.569Z,0.00
2024-02-02T05:51:31.607Z,0.00
2024-02-02T05:52:30.876Z,0.00
2024-02-02T05:53:30.786Z,0.00
2024-02-02T05:54:30.872Z,0.00
2024-02-02T05:55:31.463Z,0.00
2024-02-02T05:56:30.062Z,0.00
2024-02-02T05:57:30.112Z,0.00
2024-02-02T05:58:30.046Z,0.00
2024-02-02T05:59:31.979Z,0.00
2024-02-02T06:00:30.727Z,0.00
2024-02-02T06:01:32.016Z,0.00
2024-02-02T06:02:30.705Z,0.00
2024-02-02T06:03:30.759Z,0.00
2024-02-02T06:04:30.082Z,0.00
2024-02-02T06:05:41.885Z,0.00
2024-02-02T06:06:32.483Z,0.00
2024-02-02T06:07:32.115Z,0.00
2024-02-02T06:08:31.291Z,0.00
2024-02-02T06:09:31.830Z,0.00
2024-02-02T06:10:31.256Z,0.00
2024-02-02T06:11:30.572Z,0.00
2024-02-02T06:12:29.843Z,0.00
2024-02-02T06:13:30.098Z,0.00
2024-02-02T06:14:30.508Z,0.00
2024-02-02T06:15:31.255Z,0.00
2024-02-02T06:16:30.559Z,0.00
2024-02-02T06:17:31.194Z,0.00
2024-02-02T06:18:31.304Z,0.00
2024-02-02T06:19:30.382Z,0.00
2024-02-02T06:20:29.711Z,0.00
2024-02-02T06:21:29.757Z,0.00
2024-02-02T06:22:31.098Z,0.00
2024-02-02T06:23:31.101Z,0.00
2024-02-02T06:24:31.140Z,0.00
2024-02-02T06:25:30.390Z,0.00
2024-02-02T06:26:31.601Z,0.00
2024-02-02T06:27:30.418Z,0.00
2024-02-02T06:28:29.615Z,0.00
2024-02-02T06:29:30.782Z,0.00
2024-02-02T06:30:31.067Z,0.00
2024-02-02T06:31:30.331Z,0.00
2024-02-02T06:32:30.357Z,0.00
2024-02-02T06:33:30.237Z,4.00
2024-02-02T06:34:31.097Z,4.00
2024-02-02T06:35:34.190Z,4.00
2024-02-02T06:36:29.550Z,0.00
2024-02-02T06:37:31.484Z,4.00
2024-02-02T06:38:30.887Z,4.00
2024-02-02T06:39:30.971Z,4.00
2024-02-02T06:40:30.881Z,8.00
2024-02-02T06:41:30.284Z,8.00
2024-02-02T06:42:30.932Z,8.00
2024-02-02T06:43:32.187Z,12.00
2024-02-02T06:44:30.266Z,16.00
2024-02-02T06:45:32.240Z,24.00
2024-02-02T06:46:30.772Z,32.00
2024-02-02T06:47:30.120Z,40.00
2024-02-02T06:48:30.034Z,44.00
2024-02-02T06:49:30.628Z,52.00
2024-02-02T06:50:30.102Z,56.00
2024-02-02T06:51:29.840Z,64.00
2024-02-02T06:52:29.370Z,80.00
2024-02-02T06:53:29.288Z,92.00
2024-02-02T06:54:31.271Z,104.00
2024-02-02T06:55:30.679Z,124.00
2024-02-02T06:56:29.801Z,140.00
2024-02-02T06:57:29.367Z,160.00
2024-02-02T06:58:29.463Z,180.00
2024-02-02T06:59:31.169Z,204.00
2024-02-02T07:00:29.894Z,224.00
2024-02-02T07:01:29.901Z,248.00
2024-02-02T07:02:29.890Z,280.00
2024-02-02T07:03:29.629Z,316.00
2024-02-02T07:04:29.217Z,348.00
2024-02-02T07:05:30.564Z,384.00
2024-02-02T07:06:29.843Z,420.00
2024-02-02T07:07:30.498Z,464.00
2024-02-02T07:08:29.102Z,512.00
2024-02-02T07:09:29.114Z,564.00
2024-02-02T07:10:29.833Z,612.00
2024-02-02T07:11:31.640Z,656.00
2024-02-02T07:12:29.096Z,700.00
2024-02-02T07:13:30.423Z,724.00
2024-02-02T07:14:29.761Z,744.00
2024-02-02T07:15:29.773Z,792.00
2024-02-02T07:16:28.964Z,864.00
2024-02-02T07:17:28.964Z,956.00
2024-02-02T07:18:29.810Z,1056.00
2024-02-02T07:19:29.724Z,1144.00
2024-02-02T07:20:29.763Z,1232.00
2024-02-02T07:21:29.798Z,1308.00
2024-02-02T07:22:30.301Z,1396.00
2024-02-02T07:23:28.951Z,1500.00
2024-02-02T07:24:28.943Z,1604.00
2024-02-02T07:25:28.891Z,1708.00
2024-02-02T07:26:29.600Z,1800.00
2024-02-02T07:27:29.636Z,1876.00
2024-02-02T07:28:29.541Z,1924.00
2024-02-02T07:29:29.004Z,1988.00
2024-02-02T07:30:30.233Z,2088.00
2024-02-02T07:31:28.798Z,2200.00
2024-02-02T07:32:28.834Z,2336.00
2024-02-02T07:33:30.854Z,2492.00
2024-02-02T07:34:30.277Z,2628.00
2024-02-02T07:35:29.438Z,2752.00
2024-02-02T07:36:29.521Z,2852.00
2024-02-02T07:37:29.424Z,2912.00
2024-02-02T07:38:29.405Z,2972.00
2024-02-02T07:39:29.429Z,3024.00
2024-02-02T07:40:28.659Z,3092.00
2024-02-02T07:41:29.325Z,3188.00
2024-02-02T07:42:41.811Z,3200.00
2024-02-02T07:43:30.645Z,3168.00
2024-02-02T07:44:30.586Z,3284.00
2024-02-02T07:45:29.461Z,3524.00
2024-02-02T07:46:29.994Z,3588.00
2024-02-02T07:47:29.353Z,3548.00
2024-02-02T07:48:28.674Z,3584.00
2024-02-02T07:49:28.734Z,3588.00
2024-02-02T07:50:29.917Z,3688.00
2024-02-02T07:51:29.961Z,3560.00
2024-02-02T07:52:29.906Z,3580.00
2024-02-02T07:53:29.216Z,3636.00
2024-02-02T07:54:29.233Z,3940.00
2024-02-02T07:55:29.853Z,4068.00
2024-02-02T07:56:28.430Z,4228.00
2024-02-02T07:57:28.500Z,4560.00
2024-02-02T07:58:29.125Z,4588.00
2024-02-02T07:59:28.480Z,4556.00
2024-02-02T08:00:29.850Z,4624.00
2024-02-02T08:01:29.120Z,4412.00
2024-02-02T08:02:29.085Z,4280.00
2024-02-02T08:03:28.950Z,4500.00
2024-02-02T08:04:28.418Z,4568.00
2024-02-02T08:05:28.826Z,4584.00
2024-02-02T08:06:29.116Z,4660.00
2024-02-02T08:07:29.199Z,4620.00
2024-02-02T08:08:28.988Z,4508.00
2024-02-02T08:09:29.798Z,4536.00
2024-02-02T08:10:29.680Z,5024.00
2024-02-02T08:11:29.649Z,5032.00
2024-02-02T08:12:28.312Z,4976.00
2024-02-02T08:13:28.210Z,5008.00
2024-02-02T08:14:28.971Z,5072.00
2024-02-02T08:15:28.975Z,5204.00
2024-02-02T08:16:29.575Z,5268.00
2024-02-02T08:17:30.115Z,5520.00
2024-02-02T08:18:30.308Z,5676.00
2024-02-02T08:19:28.822Z,5660.00
2024-02-02T08:20:28.102Z,5776.00
2024-02-02T08:21:28.879Z,5548.00
2024-02-02T08:22:30.050Z,5588.00
2024-02-02T08:23:30.058Z,5980.00
2024-02-02T08:24:30.048Z,5900.00
2024-02-02T08:25:30.569Z,6016.00
2024-02-02T08:26:30.036Z,6308.00
2024-02-02T08:27:28.846Z,6396.00
2024-02-02T08:28:30.079Z,6492.00
2024-02-02T08:29:29.064Z,7332.00
2024-02-02T08:30:30.056Z,7696.00
2024-02-02T08:31:29.937Z,7944.00
2024-02-02T08:32:31.007Z,7792.00
2024-02-02T08:33:30.038Z,7812.00
2024-02-02T08:34:29.407Z,7760.00
2024-02-02T08:35:27.922Z,7596.00
2024-02-02T08:36:27.992Z,7584.00
2024-02-02T08:37:29.336Z,7192.00
2024-02-02T08:38:28.640Z,6988.00
2024-02-02T08:39:29.263Z,7480.00
2024-02-02T08:40:27.905Z,7452.00
2024-02-02T08:41:29.827Z,7284.00
2024-02-02T08:42:28.582Z,7072.00
2024-02-02T08:43:27.787Z,6848.00
2024-02-02T08:44:27.778Z,6756.00
2024-02-02T08:45:27.832Z,6684.00
2024-02-02T08:46:29.186Z,6556.00
2024-02-02T08:47:28.529Z,6944.00
2024-02-02T08:48:27.957Z,7428.00
2024-02-02T08:49:29.164Z,6812.00
2024-02-02T08:50:28.982Z,7100.00
2024-02-02T08:51:27.788Z,7212.00
2024-02-02T08:52:27.708Z,7040.00
2024-02-02T08:53:29.096Z,7176.00
2024-02-02T08:54:28.459Z,7620.00
2024-02-02T08:55:28.369Z,7484.00
2024-02-02T08:56:27.924Z,7472.00
2024-02-02T08:57:27.779Z,7376.00
2024-02-02T08:58:29.007Z,7200.00
2024-02-02T08:59:27.595Z,7464.00
2024-02-02T09:00:27.592Z,7836.00
2024-02-02T09:01:28.031Z,7336.00
2024-02-02T09:02:28.285Z,7112.00
2024-02-02T09:03:28.467Z,7448.00
2024-02-02T09:04:29.108Z,7524.00
2024-02-02T09:05:29.562Z,7520.00
2024-02-02T09:06:28.258Z,7224.00
2024-02-02T09:07:27.482Z,7508.00
2024-02-02T09:08:27.469Z,7436.00
2024-02-02T09:09:27.468Z,8004.00
2024-02-02T09:10:28.204Z,7968.00
2024-02-02T09:11:28.206Z,7732.00
2024-02-02T09:12:27.942Z,8456.00
2024-02-02T09:13:29.353Z,8588.00
2024-02-02T09:14:28.190Z,8280.00
2024-02-02T09:15:27.487Z,8932.00
2024-02-02T09:16:27.345Z,9240.00
2024-02-02T09:17:27.576Z,8616.00
2024-02-02T09:18:28.133Z,8224.00
2024-02-02T09:19:28.043Z,8808.00
2024-02-02T09:20:27.944Z,8316.00
2024-02-02T09:21:28.184Z,8492.00
2024-02-02T09:22:28.053Z,7492.00
2024-02-02T09:23:28.928Z,6500.00
2024-02-02T09:24:27.260Z,6220.00
2024-02-02T09:25:29.530Z,6204.00
2024-02-02T09:26:28.161Z,6460.00
2024-02-02T09:27:27.392Z,7540.00
2024-02-02T09:28:27.186Z,6524.00
2024-02-02T09:29:27.892Z,6336.00
2024-02-02T09:30:28.028Z,7668.00
2024-02-02T09:31:27.251Z,16512.00
2024-02-02T09:32:27.170Z,15840.00
2024-02-02T09:33:29.199Z,13228.00
2024-02-02T09:34:28.694Z,13512.00
2024-02-02T09:35:28.528Z,14568.00
2024-02-02T09:36:27.288Z,14088.00
2024-02-02T09:37:28.486Z,16480.00
2024-02-02T09:38:28.839Z,18720.00
2024-02-02T09:39:27.102Z,22688.00
2024-02-02T09:40:27.034Z,20256.00
2024-02-02T09:41:27.808Z,19328.00
2024-02-02T09:42:28.465Z,20544.00
2024-02-02T09:43:27.709Z,19456.00
2024-02-02T09:44:26.977Z,19200.00
2024-02-02T09:45:28.105Z,19200.00
2024-02-02T09:46:27.698Z,19712.00
2024-02-02T09:47:26.969Z,20544.00
2024-02-02T09:48:27.129Z,32608.00
2024-02-02T09:49:28.523Z,20672.00
2024-02-02T09:50:27.271Z,18784.00
2024-02-02T09:51:28.335Z,29376.00
2024-02-02T09:52:26.895Z,28544.00
2024-02-02T09:53:27.587Z,34304.00
2024-02-02T09:54:27.599Z,28576.00
2024-02-02T09:55:26.845Z,31200.00
2024-02-02T09:56:26.837Z,34400.00
2024-02-02T09:57:27.580Z,33792.00
2024-02-02T09:58:27.500Z,22720.00
2024-02-02T09:59:28.194Z,30080.00
2024-02-02T10:00:26.863Z,26720.00
2024-02-02T10:01:27.626Z,22944.00
2024-02-02T10:02:28.165Z,23008.00
2024-02-02T10:03:26.747Z,34048.00
2024-02-02T10:04:26.773Z,32864.00
2024-02-02T10:05:27.472Z,27552.00
2024-02-02T10:06:27.572Z,25952.00
2024-02-02T10:07:28.124Z,28832.00
2024-02-02T10:08:26.995Z,27936.00
2024-02-02T10:09:27.407Z,28032.00
2024-02-02T10:10:28.044Z,23520.00
2024-02-02T10:11:26.618Z,22688.00
2024-02-02T10:12:26.672Z,28768.00
2024-02-02T10:13:27.320Z,21408.00
2024-02-02T10:14:27.317Z,26816.00
2024-02-02T10:15:28.012Z,24672.00
2024-02-02T10:16:27.008Z,18208.00
2024-02-02T10:17:27.994Z,18208.00
2024-02-02T10:18:27.364Z,21632.00
2024-02-02T10:19:26.682Z,24960.00
2024-02-02T10:20:26.515Z,27360.00
2024-02-02T10:21:27.248Z,30560.00
2024-02-02T10:22:26.476Z,29344.00
2024-02-02T10:23:27.189Z,20832.00
2024-02-02T10:24:26.513Z,20736.00
2024-02-02T10:25:27.158Z,20672.00
2024-02-02T10:26:27.123Z,27040.00
2024-02-02T10:27:26.468Z,27776.00
2024-02-02T10:28:26.430Z,26528.00
2024-02-02T10:29:27.103Z,28544.00
2024-02-02T10:30:27.109Z,20512.00
2024-02-02T10:31:27.750Z,26816.00
2024-02-02T10:32:26.425Z,30816.00
2024-02-02T10:33:27.317Z,23968.00
2024-02-02T10:34:27.078Z,21568.00
2024-02-02T10:35:26.361Z,29888.00
2024-02-02T10:36:26.341Z,24448.00
2024-02-02T10:37:28.202Z,37248.00
2024-02-02T10:38:28.219Z,41184.00
2024-02-02T10:39:28.272Z,44064.00
2024-02-02T10:40:28.213Z,41440.00
2024-02-02T10:41:28.160Z,40320.00
2024-02-02T10:42:28.193Z,33952.00
2024-02-02T10:43:26.170Z,42304.00
2024-02-02T10:44:26.160Z,43680.00
2024-02-02T10:45:28.170Z,30144.00
2024-02-02T10:46:28.082Z,26144.00
2024-02-02T10:47:28.074Z,38784.00
2024-02-02T10:48:28.261Z,42304.00
2024-02-02T10:49:28.137Z,33088.00
2024-02-02T10:50:27.498Z,24992.00
2024-02-02T10:51:26.109Z,34304.00
2024-02-02T10:52:26.054Z,26464.00
2024-02-02T10:53:27.998Z,46112.00
2024-02-02T10:54:26.791Z,24352.00
2024-02-02T10:55:26.762Z,41568.00
2024-02-02T10:56:26.728Z,42656.00
2024-02-02T10:57:27.445Z,25600.00
2024-02-02T10:58:27.392Z,23552.00
2024-02-02T10:59:25.959Z,23808.00
2024-02-02T11:00:26.764Z,25408.00
2024-02-02T11:01:26.692Z,25504.00
2024-02-02T11:02:26.660Z,26688.00
2024-02-02T11:03:26.726Z,28256.00
2024-02-02T11:04:26.700Z,27904.00
2024-02-02T11:05:26.610Z,36832.00
2024-02-02T11:06:26.766Z,24320.00
2024-02-02T11:07:25.861Z,26912.00
2024-02-02T11:08:25.827Z,29184.00
2024-02-02T11:09:26.614Z,23168.00
2024-02-02T11:10:26.545Z,22592.00
2024-02-02T11:11:26.519Z,21792.00
2024-02-02T11:12:27.232Z,20416.00
2024-02-02T11:13:27.206Z,20960.00
2024-02-02T11:14:26.475Z,27968.00
2024-02-02T11:15:25.793Z,21248.00
2024-02-02T11:16:25.718Z,24128.00
2024-02-02T11:17:27.111Z,25088.00
2024-02-02T11:18:26.636Z,25344.00
2024-02-02T11:19:27.732Z,24480.00
2024-02-02T11:20:26.433Z,27488.00
2024-02-02T11:21:26.469Z,28064.00
2024-02-02T11:22:27.041Z,28512.00
2024-02-02T11:23:25.630Z,28512.00
2024-02-02T11:24:26.080Z,28704.00
2024-02-02T11:25:26.443Z,26848.00
2024-02-02T11:26:26.345Z,27264.00
2024-02-02T11:27:26.344Z,26560.00
2024-02-02T11:28:26.974Z,26784.00
2024-02-02T11:29:26.950Z,26624.00
2024-02-02T11:30:26.286Z,26784.00
2024-02-02T11:31:25.501Z,26496.00
2024-02-02T11:32:25.523Z,26848.00
2024-02-02T11:33:26.332Z,25888.00
2024-02-02T11:34:26.220Z,25792.00
2024-02-02T11:35:26.182Z,26112.00
2024-02-02T11:36:26.113Z,24736.00
2024-02-02T11:37:30.535Z,25568.00
2024-02-02T11:38:26.858Z,26368.00
2024-02-02T11:39:25.395Z,26048.00
2024-02-02T11:40:25.370Z,26240.00
2024-02-02T11:41:26.150Z,26336.00
2024-02-02T11:42:26.146Z,23872.00
2024-02-02T11:43:26.084Z,26944.00
2024-02-02T11:44:25.335Z,25216.00
2024-02-02T11:45:26.790Z,25600.00
2024-02-02T11:46:27.251Z,22688.00
2024-02-02T11:47:25.310Z,27104.00
2024-02-02T11:48:25.444Z,21696.00
2024-02-02T11:49:26.709Z,28992.00
2024-02-02T11:50:26.008Z,30080.00
2024-02-02T11:51:26.006Z,27744.00
2024-02-02T11:52:25.311Z,29440.00
2024-02-02T11:53:25.945Z,27424.00
2024-02-02T11:54:25.986Z,27552.00
2024-02-02T11:55:25.168Z,25376.00
2024-02-02T11:56:25.305Z,27360.00
2024-02-02T11:57:25.945Z,28480.00
2024-02-02T11:58:26.577Z,27872.00
2024-02-02T11:59:26.521Z,29216.00
2024-02-02T12:00:26.577Z,29120.00
2024-02-02T12:01:25.810Z,21056.00
2024-02-02T12:02:25.831Z,26208.00
2024-02-02T12:03:25.102Z,25568.00
2024-02-02T12:04:25.819Z,24992.00
2024-02-02T12:05:25.851Z,24096.00
2024-02-02T12:06:25.955Z,23936.00
2024-02-02T12:07:25.798Z,24192.00
2024-02-02T12:08:26.538Z,23968.00
2024-02-02T12:09:26.555Z,23296.00
2024-02-02T12:10:24.972Z,23296.00
2024-02-02T12:11:29.654Z,22592.00
2024-02-02T12:12:25.982Z,22496.00
2024-02-02T12:13:26.346Z,20608.00
2024-02-02T12:14:25.644Z,21088.00
2024-02-02T12:15:26.377Z,20704.00
2024-02-02T12:16:25.625Z,21440.00
2024-02-02T12:17:25.601Z,22432.00
2024-02-02T12:18:25.743Z,23136.00
2024-02-02T12:19:24.983Z,23872.00
2024-02-02T12:20:24.916Z,24224.00
2024-02-02T12:21:25.587Z,26976.00
2024-02-02T12:22:25.543Z,26240.00
2024-02-02T12:23:25.579Z,26304.00
2024-02-02T12:24:25.545Z,26592.00
2024-02-02T12:25:25.510Z,28704.00
2024-02-02T12:26:25.188Z,28128.00
2024-02-02T12:27:25.186Z,27520.00
2024-02-02T12:28:24.715Z,26368.00
2024-02-02T12:29:25.427Z,25344.00
2024-02-02T12:30:26.122Z,24832.00
2024-02-02T12:31:24.792Z,25152.00
2024-02-02T12:32:26.077Z,24000.00
2024-02-02T12:33:25.499Z,24352.00
2024-02-02T12:34:26.236Z,24672.00
2024-02-02T12:35:25.473Z,22816.00
2024-02-02T12:36:25.109Z,23072.00
2024-02-02T12:37:25.338Z,23008.00
2024-02-02T12:38:25.998Z,23488.00